sensor_id;sensor_type;location;lat;lon;timestamp;P1;durP1;ratioP1;P2;durP2;ratioP2
22894;SDS011;11614;52.494;6.976;2022-10-26T00:01:33;17.10;;;10.63;;
22894;SDS011;11614;52.494;6.976;2022-10-26T00:03:59;16.33;;;9.67;;
22894;SDS011;11614;52.494;6.976;2022-10-26T00:06:25;17.83;;;10.07;;
22894;SDS011;11614;52.494;6.976;2022-10-26T00:08:54;16.37;;;10.27;;
22894;SDS011;11614;52.494;6.976;2022-10-26T00:11:21;16.27;;;9.40;;
22894;SDS011;11614;52.494;6.976;2022-10-26T00:13:47;18.27;;;9.60;;
22894;SDS011;11614;52.494;6.976;2022-10-26T00:16:15;14.83;;;9.30;;
22894;SDS011;11614;52.494;6.976;2022-10-26T00:18:46;24.30;;;10.70;;
22894;SDS011;11614;52.494;6.976;2022-10-26T00:21:12;15.83;;;10.33;;
22894;SDS011;11614;52.494;6.976;2022-10-26T00:23:38;13.37;;;9.30;;
22894;SDS011;11614;52.494;6.976;2022-10-26T00:26:04;15.73;;;9.33;;
22894;SDS011;11614;52.494;6.976;2022-10-26T00:28:30;13.20;;;8.27;;
22894;SDS011;11614;52.494;6.976;2022-10-26T00:30:59;17.47;;;9.37;;
22894;SDS011;11614;52.494;6.976;2022-10-26T00:33:26;16.00;;;9.30;;
22894;SDS011;11614;52.494;6.976;2022-10-26T00:35:54;14.47;;;9.07;;
22894;SDS011;11614;52.494;6.976;2022-10-26T00:38:20;15.47;;;10.17;;
22894;SDS011;11614;52.494;6.976;2022-10-26T00:40:45;13.80;;;9.10;;
22894;SDS011;11614;52.494;6.976;2022-10-26T00:45:45;17.90;;;7.57;;
22894;SDS011;11614;52.494;6.976;2022-10-26T00:48:23;12.03;;;7.80;;
22894;SDS011;11614;52.494;6.976;2022-10-26T00:50:55;12.00;;;7.93;;
22894;SDS011;11614;52.494;6.976;2022-10-26T00:53:22;12.37;;;8.00;;
22894;SDS011;11614;52.494;6.976;2022-10-26T00:55:49;14.23;;;8.63;;
22894;SDS011;11614;52.494;6.976;2022-10-26T00:58:16;11.87;;;8.03;;
22894;SDS011;11614;52.494;6.976;2022-10-26T01:00:44;12.90;;;8.13;;
22894;SDS011;11614;52.494;6.976;2022-10-26T01:03:12;14.13;;;8.53;;
22894;SDS011;11614;52.494;6.976;2022-10-26T01:05:39;13.33;;;7.87;;
22894;SDS011;11614;52.494;6.976;2022-10-26T01:08:06;11.93;;;7.83;;
22894;SDS011;11614;52.494;6.976;2022-10-26T01:10:33;13.03;;;7.93;;
22894;SDS011;11614;52.494;6.976;2022-10-26T01:12:59;19.97;;;9.33;;
22894;SDS011;11614;52.494;6.976;2022-10-26T01:15:29;12.60;;;7.83;;
22894;SDS011;11614;52.494;6.976;2022-10-26T01:27:28;11.83;;;7.53;;
22894;SDS011;11614;52.494;6.976;2022-10-26T01:35:07;12.13;;;7.77;;
22894;SDS011;11614;52.494;6.976;2022-10-26T01:37:38;15.63;;;7.80;;
22894;SDS011;11614;52.494;6.976;2022-10-26T01:40:14;14.27;;;7.87;;
22894;SDS011;11614;52.494;6.976;2022-10-26T01:42:47;14.07;;;8.00;;
22894;SDS011;11614;52.494;6.976;2022-10-26T01:45:16;12.83;;;6.97;;
22894;SDS011;11614;52.494;6.976;2022-10-26T01:47:42;12.97;;;7.37;;
22894;SDS011;11614;52.494;6.976;2022-10-26T01:50:10;11.93;;;7.57;;
22894;SDS011;11614;52.494;6.976;2022-10-26T01:52:36;12.17;;;7.33;;
22894;SDS011;11614;52.494;6.976;2022-10-26T01:55:31;12.13;;;6.63;;
22894;SDS011;11614;52.494;6.976;2022-10-26T01:58:15;12.93;;;7.13;;
22894;SDS011;11614;52.494;6.976;2022-10-26T02:03:43;15.70;;;8.73;;
22894;SDS011;11614;52.494;6.976;2022-10-26T02:06:18;15.40;;;8.90;;
22894;SDS011;11614;52.494;6.976;2022-10-26T02:08:58;27.73;;;14.80;;
22894;SDS011;11614;52.494;6.976;2022-10-26T02:11:37;25.90;;;14.33;;
22894;SDS011;11614;52.494;6.976;2022-10-26T02:14:14;28.63;;;16.23;;
22894;SDS011;11614;52.494;6.976;2022-10-26T02:19:27;26.90;;;15.13;;
22894;SDS011;11614;52.494;6.976;2022-10-26T02:22:00;25.27;;;13.77;;
22894;SDS011;11614;52.494;6.976;2022-10-26T02:24:31;27.03;;;14.60;;
22894;SDS011;11614;52.494;6.976;2022-10-26T02:26:58;28.73;;;16.90;;
22894;SDS011;11614;52.494;6.976;2022-10-26T02:29:26;21.50;;;12.70;;
22894;SDS011;11614;52.494;6.976;2022-10-26T02:31:54;25.50;;;15.80;;
22894;SDS011;11614;52.494;6.976;2022-10-26T02:34:23;24.33;;;13.77;;
22894;SDS011;11614;52.494;6.976;2022-10-26T02:36:52;26.60;;;14.47;;
22894;SDS011;11614;52.494;6.976;2022-10-26T02:39:21;30.43;;;17.53;;
22894;SDS011;11614;52.494;6.976;2022-10-26T02:41:47;29.13;;;15.30;;
22894;SDS011;11614;52.494;6.976;2022-10-26T02:44:25;29.47;;;16.27;;
22894;SDS011;11614;52.494;6.976;2022-10-26T02:46:53;24.43;;;15.00;;
22894;SDS011;11614;52.494;6.976;2022-10-26T02:49:20;32.07;;;16.53;;
22894;SDS011;11614;52.494;6.976;2022-10-26T02:51:48;29.60;;;15.97;;
22894;SDS011;11614;52.494;6.976;2022-10-26T02:54:31;32.07;;;17.80;;
22894;SDS011;11614;52.494;6.976;2022-10-26T02:57:12;35.57;;;17.83;;
22894;SDS011;11614;52.494;6.976;2022-10-26T02:59:51;36.63;;;19.03;;
22894;SDS011;11614;52.494;6.976;2022-10-26T03:02:19;37.80;;;19.97;;
22894;SDS011;11614;52.494;6.976;2022-10-26T03:04:45;30.60;;;17.10;;
22894;SDS011;11614;52.494;6.976;2022-10-26T03:07:19;29.43;;;19.40;;
22894;SDS011;11614;52.494;6.976;2022-10-26T03:09:45;34.93;;;20.67;;
22894;SDS011;11614;52.494;6.976;2022-10-26T03:12:12;35.47;;;19.80;;
22894;SDS011;11614;52.494;6.976;2022-10-26T03:14:37;35.63;;;19.20;;
22894;SDS011;11614;52.494;6.976;2022-10-26T03:17:05;42.23;;;21.67;;
22894;SDS011;11614;52.494;6.976;2022-10-26T03:19:31;35.90;;;20.90;;
22894;SDS011;11614;52.494;6.976;2022-10-26T03:21:57;35.27;;;17.63;;
22894;SDS011;11614;52.494;6.976;2022-10-26T03:24:23;30.60;;;17.60;;
22894;SDS011;11614;52.494;6.976;2022-10-26T03:26:49;37.87;;;21.17;;
22894;SDS011;11614;52.494;6.976;2022-10-26T03:29:15;36.03;;;20.37;;
22894;SDS011;11614;52.494;6.976;2022-10-26T03:31:43;40.40;;;22.30;;
22894;SDS011;11614;52.494;6.976;2022-10-26T03:34:11;39.73;;;22.50;;
22894;SDS011;11614;52.494;6.976;2022-10-26T03:36:55;45.40;;;25.13;;
22894;SDS011;11614;52.494;6.976;2022-10-26T03:39:24;39.97;;;21.67;;
22894;SDS011;11614;52.494;6.976;2022-10-26T03:41:52;29.73;;;15.73;;
22894;SDS011;11614;52.494;6.976;2022-10-26T03:44:19;44.67;;;25.63;;
22894;SDS011;11614;52.494;6.976;2022-10-26T03:46:45;45.60;;;26.17;;
22894;SDS011;11614;52.494;6.976;2022-10-26T03:49:11;43.00;;;23.67;;
22894;SDS011;11614;52.494;6.976;2022-10-26T03:51:37;41.07;;;23.37;;
22894;SDS011;11614;52.494;6.976;2022-10-26T03:54:03;38.70;;;22.07;;
22894;SDS011;11614;52.494;6.976;2022-10-26T03:56:29;47.73;;;24.90;;
22894;SDS011;11614;52.494;6.976;2022-10-26T03:58:55;46.67;;;26.97;;
22894;SDS011;11614;52.494;6.976;2022-10-26T04:01:21;42.87;;;24.57;;
22894;SDS011;11614;52.494;6.976;2022-10-26T04:03:47;37.47;;;21.70;;
22894;SDS011;11614;52.494;6.976;2022-10-26T04:06:13;42.53;;;24.87;;
22894;SDS011;11614;52.494;6.976;2022-10-26T04:08:39;36.80;;;21.50;;
22894;SDS011;11614;52.494;6.976;2022-10-26T04:11:05;36.27;;;21.93;;
22894;SDS011;11614;52.494;6.976;2022-10-26T04:13:31;46.93;;;24.70;;
22894;SDS011;11614;52.494;6.976;2022-10-26T04:15:57;41.43;;;23.77;;
22894;SDS011;11614;52.494;6.976;2022-10-26T04:18:23;37.50;;;22.83;;
22894;SDS011;11614;52.494;6.976;2022-10-26T04:20:49;44.47;;;24.57;;
22894;SDS011;11614;52.494;6.976;2022-10-26T04:23:15;36.80;;;21.37;;
22894;SDS011;11614;52.494;6.976;2022-10-26T04:25:42;33.20;;;20.13;;
22894;SDS011;11614;52.494;6.976;2022-10-26T04:28:08;17.20;;;8.93;;
22894;SDS011;11614;52.494;6.976;2022-10-26T04:30:35;26.73;;;14.77;;
22894;SDS011;11614;52.494;6.976;2022-10-26T04:33:02;26.50;;;16.67;;
22894;SDS011;11614;52.494;6.976;2022-10-26T04:35:28;34.80;;;18.43;;
22894;SDS011;11614;52.494;6.976;2022-10-26T04:37:57;14.20;;;8.20;;
22894;SDS011;11614;52.494;6.976;2022-10-26T04:40:24;38.13;;;20.63;;
22894;SDS011;11614;52.494;6.976;2022-10-26T04:42:50;38.67;;;20.80;;
22894;SDS011;11614;52.494;6.976;2022-10-26T04:45:16;30.13;;;19.00;;
22894;SDS011;11614;52.494;6.976;2022-10-26T04:47:42;35.13;;;20.93;;
22894;SDS011;11614;52.494;6.976;2022-10-26T04:50:09;34.70;;;19.70;;
22894;SDS011;11614;52.494;6.976;2022-10-26T04:52:35;38.57;;;22.40;;
22894;SDS011;11614;52.494;6.976;2022-10-26T04:55:02;24.90;;;15.03;;
22894;SDS011;11614;52.494;6.976;2022-10-26T04:57:30;34.00;;;18.30;;
22894;SDS011;11614;52.494;6.976;2022-10-26T04:59:57;26.73;;;16.63;;
22894;SDS011;11614;52.494;6.976;2022-10-26T05:02:23;25.73;;;16.20;;
22894;SDS011;11614;52.494;6.976;2022-10-26T05:04:51;22.73;;;12.00;;
22894;SDS011;11614;52.494;6.976;2022-10-26T05:07:20;18.57;;;10.97;;
22894;SDS011;11614;52.494;6.976;2022-10-26T05:09:53;26.63;;;16.37;;
22894;SDS011;11614;52.494;6.976;2022-10-26T05:12:24;28.23;;;15.63;;
22894;SDS011;11614;52.494;6.976;2022-10-26T05:15:02;30.63;;;17.80;;
22894;SDS011;11614;52.494;6.976;2022-10-26T05:20:42;31.93;;;18.83;;
22894;SDS011;11614;52.494;6.976;2022-10-26T05:23:13;26.60;;;15.30;;
22894;SDS011;11614;52.494;6.976;2022-10-26T05:25:45;25.83;;;16.20;;
22894;SDS011;11614;52.494;6.976;2022-10-26T05:28:35;29.67;;;17.10;;
22894;SDS011;11614;52.494;6.976;2022-10-26T05:31:06;30.47;;;18.17;;
22894;SDS011;11614;52.494;6.976;2022-10-26T05:34:04;31.03;;;17.20;;
22894;SDS011;11614;52.494;6.976;2022-10-26T05:36:36;25.33;;;16.33;;
22894;SDS011;11614;52.494;6.976;2022-10-26T05:39:38;23.27;;;14.40;;
22894;SDS011;11614;52.494;6.976;2022-10-26T05:42:16;25.83;;;17.00;;
22894;SDS011;11614;52.494;6.976;2022-10-26T05:44:53;28.97;;;16.43;;
22894;SDS011;11614;52.494;6.976;2022-10-26T05:50:11;25.40;;;15.33;;
22894;SDS011;11614;52.494;6.976;2022-10-26T05:52:43;25.93;;;16.10;;
22894;SDS011;11614;52.494;6.976;2022-10-26T05:55:25;23.80;;;15.50;;
22894;SDS011;11614;52.494;6.976;2022-10-26T05:58:02;22.93;;;15.00;;
22894;SDS011;11614;52.494;6.976;2022-10-26T06:00:44;27.43;;;16.57;;
22894;SDS011;11614;52.494;6.976;2022-10-26T06:04:22;26.90;;;14.80;;
22894;SDS011;11614;52.494;6.976;2022-10-26T06:06:26;23.53;;;15.70;;
22894;SDS011;11614;52.494;6.976;2022-10-26T06:08:56;25.77;;;16.00;;
22894;SDS011;11614;52.494;6.976;2022-10-26T06:11:23;22.27;;;14.80;;
22894;SDS011;11614;52.494;6.976;2022-10-26T06:13:48;24.30;;;14.53;;
22894;SDS011;11614;52.494;6.976;2022-10-26T06:16:24;22.23;;;13.50;;
22894;SDS011;11614;52.494;6.976;2022-10-26T06:24:54;20.43;;;11.70;;
22894;SDS011;11614;52.494;6.976;2022-10-26T06:30:07;69.97;;;43.10;;
22894;SDS011;11614;52.494;6.976;2022-10-26T06:32:35;45.17;;;29.53;;
22894;SDS011;11614;52.494;6.976;2022-10-26T06:35:19;27.17;;;17.27;;
22894;SDS011;11614;52.494;6.976;2022-10-26T06:38:06;26.33;;;15.50;;
22894;SDS011;11614;52.494;6.976;2022-10-26T06:40:35;30.43;;;17.00;;
22894;SDS011;11614;52.494;6.976;2022-10-26T06:43:03;31.63;;;20.20;;
22894;SDS011;11614;52.494;6.976;2022-10-26T06:45:37;31.37;;;19.63;;
22894;SDS011;11614;52.494;6.976;2022-10-26T06:48:08;29.23;;;13.37;;
22894;SDS011;11614;52.494;6.976;2022-10-26T06:50:51;27.80;;;16.37;;
22894;SDS011;11614;52.494;6.976;2022-10-26T06:53:26;23.90;;;14.47;;
22894;SDS011;11614;52.494;6.976;2022-10-26T06:55:56;24.93;;;13.13;;
22894;SDS011;11614;52.494;6.976;2022-10-26T06:58:24;32.50;;;19.57;;
22894;SDS011;11614;52.494;6.976;2022-10-26T07:00:54;24.90;;;15.17;;
22894;SDS011;11614;52.494;6.976;2022-10-26T07:03:21;23.80;;;14.43;;
22894;SDS011;11614;52.494;6.976;2022-10-26T07:05:47;20.53;;;11.53;;
22894;SDS011;11614;52.494;6.976;2022-10-26T07:08:15;25.73;;;12.87;;
22894;SDS011;11614;52.494;6.976;2022-10-26T07:10:41;24.07;;;14.10;;
22894;SDS011;11614;52.494;6.976;2022-10-26T07:13:07;26.60;;;15.33;;
22894;SDS011;11614;52.494;6.976;2022-10-26T07:15:34;21.10;;;14.77;;
22894;SDS011;11614;52.494;6.976;2022-10-26T07:18:04;24.57;;;12.87;;
22894;SDS011;11614;52.494;6.976;2022-10-26T07:20:34;14.33;;;9.70;;
22894;SDS011;11614;52.494;6.976;2022-10-26T07:23:03;11.57;;;8.13;;
22894;SDS011;11614;52.494;6.976;2022-10-26T07:25:31;14.63;;;8.63;;
22894;SDS011;11614;52.494;6.976;2022-10-26T07:27:57;12.13;;;8.40;;
22894;SDS011;11614;52.494;6.976;2022-10-26T07:30:24;11.07;;;8.10;;
22894;SDS011;11614;52.494;6.976;2022-10-26T07:32:59;13.13;;;7.20;;
22894;SDS011;11614;52.494;6.976;2022-10-26T07:35:26;10.97;;;7.03;;
22894;SDS011;11614;52.494;6.976;2022-10-26T07:37:54;12.23;;;7.10;;
22894;SDS011;11614;52.494;6.976;2022-10-26T07:40:23;10.60;;;7.00;;
22894;SDS011;11614;52.494;6.976;2022-10-26T07:42:49;10.00;;;6.83;;
22894;SDS011;11614;52.494;6.976;2022-10-26T07:45:16;10.50;;;7.13;;
22894;SDS011;11614;52.494;6.976;2022-10-26T07:47:42;9.67;;;6.27;;
22894;SDS011;11614;52.494;6.976;2022-10-26T07:50:10;6.90;;;4.63;;
22894;SDS011;11614;52.494;6.976;2022-10-26T07:52:36;10.80;;;5.93;;
22894;SDS011;11614;52.494;6.976;2022-10-26T07:55:03;6.70;;;5.47;;
22894;SDS011;11614;52.494;6.976;2022-10-26T07:57:36;9.83;;;5.43;;
22894;SDS011;11614;52.494;6.976;2022-10-26T08:00:13;7.37;;;4.73;;
22894;SDS011;11614;52.494;6.976;2022-10-26T08:02:47;6.40;;;4.77;;
22894;SDS011;11614;52.494;6.976;2022-10-26T08:05:51;8.17;;;4.77;;
22894;SDS011;11614;52.494;6.976;2022-10-26T08:08:46;7.10;;;4.40;;
22894;SDS011;11614;52.494;6.976;2022-10-26T08:11:25;8.57;;;4.40;;
22894;SDS011;11614;52.494;6.976;2022-10-26T08:14:09;7.23;;;3.73;;
22894;SDS011;11614;52.494;6.976;2022-10-26T08:16:57;9.37;;;4.50;;
22894;SDS011;11614;52.494;6.976;2022-10-26T08:19:29;5.57;;;3.90;;
22894;SDS011;11614;52.494;6.976;2022-10-26T08:22:03;8.47;;;4.10;;
22894;SDS011;11614;52.494;6.976;2022-10-26T08:24:37;9.03;;;4.50;;
22894;SDS011;11614;52.494;6.976;2022-10-26T08:27:14;5.60;;;4.17;;
22894;SDS011;11614;52.494;6.976;2022-10-26T08:29:46;6.47;;;4.20;;
22894;SDS011;11614;52.494;6.976;2022-10-26T08:32:14;6.47;;;4.37;;
22894;SDS011;11614;52.494;6.976;2022-10-26T08:34:49;7.87;;;4.23;;
22894;SDS011;11614;52.494;6.976;2022-10-26T08:37:18;6.83;;;4.30;;
22894;SDS011;11614;52.494;6.976;2022-10-26T08:39:48;7.60;;;4.40;;
22894;SDS011;11614;52.494;6.976;2022-10-26T08:42:19;6.97;;;4.50;;
22894;SDS011;11614;52.494;6.976;2022-10-26T08:44:52;9.30;;;4.80;;
22894;SDS011;11614;52.494;6.976;2022-10-26T08:47:36;6.47;;;4.70;;
22894;SDS011;11614;52.494;6.976;2022-10-26T08:50:16;5.73;;;4.30;;
22894;SDS011;11614;52.494;6.976;2022-10-26T08:52:51;6.73;;;4.30;;
22894;SDS011;11614;52.494;6.976;2022-10-26T09:01:35;6.38;;;3.22;;
22894;SDS011;11614;52.494;6.976;2022-10-26T09:04:10;5.68;;;3.20;;
22894;SDS011;11614;52.494;6.976;2022-10-26T09:13:05;6.35;;;3.78;;
22894;SDS011;11614;52.494;6.976;2022-10-26T09:27:42;5.18;;;3.03;;
22894;SDS011;11614;52.494;6.976;2022-10-26T09:30:20;5.50;;;3.28;;
22894;SDS011;11614;52.494;6.976;2022-10-26T09:33:01;5.05;;;3.35;;
22894;SDS011;11614;52.494;6.976;2022-10-26T09:42:01;5.20;;;3.38;;
22894;SDS011;11614;52.494;6.976;2022-10-26T09:44:41;5.05;;;3.60;;
22894;SDS011;11614;52.494;6.976;2022-10-26T09:53:06;4.65;;;3.30;;
22894;SDS011;11614;52.494;6.976;2022-10-26T09:55:58;5.72;;;3.70;;
22894;SDS011;11614;52.494;6.976;2022-10-26T09:58:49;3.28;;;2.97;;
22894;SDS011;11614;52.494;6.976;2022-10-26T10:04:33;4.53;;;3.90;;
22894;SDS011;11614;52.494;6.976;2022-10-26T10:09:36;2.90;;;2.50;;
22894;SDS011;11614;52.494;6.976;2022-10-26T10:14:54;3.08;;;2.78;;
22894;SDS011;11614;52.494;6.976;2022-10-26T10:17:26;5.60;;;3.00;;
22894;SDS011;11614;52.494;6.976;2022-10-26T10:20:15;4.00;;;3.10;;
22894;SDS011;11614;52.494;6.976;2022-10-26T10:23:09;4.57;;;2.67;;
22894;SDS011;11614;52.494;6.976;2022-10-26T10:26:19;4.13;;;2.75;;
22894;SDS011;11614;52.494;6.976;2022-10-26T10:28:42;8.90;;;3.10;;
22894;SDS011;11614;52.494;6.976;2022-10-26T10:34:28;4.95;;;2.40;;
22894;SDS011;11614;52.494;6.976;2022-10-26T10:37:12;3.03;;;2.38;;
22894;SDS011;11614;52.494;6.976;2022-10-26T10:40:03;4.05;;;3.40;;
22894;SDS011;11614;52.494;6.976;2022-10-26T10:42:49;3.03;;;2.50;;
22894;SDS011;11614;52.494;6.976;2022-10-26T10:45:43;5.45;;;2.30;;
22894;SDS011;11614;52.494;6.976;2022-10-26T10:51:02;5.68;;;2.70;;
22894;SDS011;11614;52.494;6.976;2022-10-26T10:53:42;4.80;;;2.92;;
22894;SDS011;11614;52.494;6.976;2022-10-26T11:07:41;2.65;;;2.40;;
22894;SDS011;11614;52.494;6.976;2022-10-26T11:13:37;4.32;;;3.03;;
22894;SDS011;11614;52.494;6.976;2022-10-26T11:21:53;7.97;;;3.42;;
22894;SDS011;11614;52.494;6.976;2022-10-26T11:24:46;3.30;;;2.65;;
22894;SDS011;11614;52.494;6.976;2022-10-26T11:30:45;5.05;;;3.15;;
22894;SDS011;11614;52.494;6.976;2022-10-26T11:36:24;3.92;;;2.55;;
22894;SDS011;11614;52.494;6.976;2022-10-26T11:39:09;11.40;;;4.35;;
22894;SDS011;11614;52.494;6.976;2022-10-26T11:53:52;5.80;;;2.88;;
22894;SDS011;11614;52.494;6.976;2022-10-26T11:59:31;5.85;;;2.88;;
22894;SDS011;11614;52.494;6.976;2022-10-26T12:02:42;5.00;;;2.53;;
22894;SDS011;11614;52.494;6.976;2022-10-26T12:05:47;7.28;;;3.47;;
22894;SDS011;11614;52.494;6.976;2022-10-26T12:14:22;5.35;;;3.17;;
22894;SDS011;11614;52.494;6.976;2022-10-26T12:17:07;3.20;;;2.80;;
22894;SDS011;11614;52.494;6.976;2022-10-26T12:22:42;4.28;;;2.90;;
22894;SDS011;11614;52.494;6.976;2022-10-26T12:31:48;6.97;;;3.30;;
22894;SDS011;11614;52.494;6.976;2022-10-26T12:44:29;5.40;;;3.33;;
22894;SDS011;11614;52.494;6.976;2022-10-26T12:46:49;4.88;;;3.38;;
22894;SDS011;11614;52.494;6.976;2022-10-26T12:52:00;5.65;;;3.50;;
22894;SDS011;11614;52.494;6.976;2022-10-26T12:54:37;7.20;;;3.88;;
22894;SDS011;11614;52.494;6.976;2022-10-26T12:57:20;3.90;;;3.55;;
22894;SDS011;11614;52.494;6.976;2022-10-26T13:00:01;5.93;;;3.72;;
22894;SDS011;11614;52.494;6.976;2022-10-26T13:07:34;4.50;;;3.00;;
22894;SDS011;11614;52.494;6.976;2022-10-26T13:12:37;5.97;;;4.15;;
22894;SDS011;11614;52.494;6.976;2022-10-26T13:15:23;5.50;;;4.00;;
22894;SDS011;11614;52.494;6.976;2022-10-26T13:17:55;5.65;;;3.85;;
22894;SDS011;11614;52.494;6.976;2022-10-26T13:20:21;4.03;;;3.63;;
22894;SDS011;11614;52.494;6.976;2022-10-26T13:22:47;5.97;;;4.40;;
22894;SDS011;11614;52.494;6.976;2022-10-26T13:25:21;5.35;;;4.45;;
22894;SDS011;11614;52.494;6.976;2022-10-26T13:28:04;4.65;;;3.67;;
22894;SDS011;11614;52.494;6.976;2022-10-26T13:30:46;5.68;;;4.03;;
22894;SDS011;11614;52.494;6.976;2022-10-26T13:33:15;8.55;;;4.78;;
22894;SDS011;11614;52.494;6.976;2022-10-26T13:35:42;9.82;;;4.60;;
22894;SDS011;11614;52.494;6.976;2022-10-26T13:38:09;7.57;;;4.32;;
22894;SDS011;11614;52.494;6.976;2022-10-26T13:40:36;5.70;;;4.03;;
22894;SDS011;11614;52.494;6.976;2022-10-26T13:43:03;7.20;;;4.45;;
22894;SDS011;11614;52.494;6.976;2022-10-26T13:45:33;8.40;;;4.07;;
22894;SDS011;11614;52.494;6.976;2022-10-26T13:48:04;7.43;;;4.82;;
22894;SDS011;11614;52.494;6.976;2022-10-26T13:50:34;9.60;;;4.65;;
22894;SDS011;11614;52.494;6.976;2022-10-26T13:53:15;5.68;;;3.92;;
22894;SDS011;11614;52.494;6.976;2022-10-26T13:55:47;6.05;;;4.25;;
22894;SDS011;11614;52.494;6.976;2022-10-26T14:01:00;9.52;;;4.88;;
22894;SDS011;11614;52.494;6.976;2022-10-26T14:03:27;10.85;;;4.93;;
22894;SDS011;11614;52.494;6.976;2022-10-26T14:05:53;6.03;;;3.40;;
22894;SDS011;11614;52.494;6.976;2022-10-26T14:08:19;6.43;;;3.30;;
22894;SDS011;11614;52.494;6.976;2022-10-26T14:10:46;6.30;;;4.32;;
22894;SDS011;11614;52.494;6.976;2022-10-26T14:13:13;7.45;;;4.72;;
22894;SDS011;11614;52.494;6.976;2022-10-26T14:15:43;7.78;;;4.82;;
22894;SDS011;11614;52.494;6.976;2022-10-26T14:18:11;7.60;;;4.82;;
22894;SDS011;11614;52.494;6.976;2022-10-26T14:20:38;3.85;;;2.75;;
22894;SDS011;11614;52.494;6.976;2022-10-26T14:23:09;7.55;;;5.15;;
22894;SDS011;11614;52.494;6.976;2022-10-26T14:25:51;8.00;;;4.57;;
22894;SDS011;11614;52.494;6.976;2022-10-26T14:28:22;6.28;;;4.45;;
22894;SDS011;11614;52.494;6.976;2022-10-26T14:30:48;5.03;;;4.00;;
22894;SDS011;11614;52.494;6.976;2022-10-26T14:33:18;6.68;;;4.35;;
22894;SDS011;11614;52.494;6.976;2022-10-26T14:35:45;7.85;;;3.88;;
22894;SDS011;11614;52.494;6.976;2022-10-26T14:38:29;5.65;;;4.47;;
22894;SDS011;11614;52.494;6.976;2022-10-26T14:40:56;6.18;;;3.40;;
22894;SDS011;11614;52.494;6.976;2022-10-26T14:43:23;4.45;;;3.03;;
22894;SDS011;11614;52.494;6.976;2022-10-26T14:45:51;6.55;;;3.95;;
22894;SDS011;11614;52.494;6.976;2022-10-26T14:48:50;5.47;;;3.05;;
22894;SDS011;11614;52.494;6.976;2022-10-26T14:51:17;7.53;;;4.20;;
22894;SDS011;11614;52.494;6.976;2022-10-26T14:53:47;5.75;;;4.38;;
22894;SDS011;11614;52.494;6.976;2022-10-26T14:58:47;5.00;;;3.25;;
22894;SDS011;11614;52.494;6.976;2022-10-26T15:03:50;6.53;;;3.33;;
22894;SDS011;11614;52.494;6.976;2022-10-26T15:06:20;8.55;;;4.03;;
22894;SDS011;11614;52.494;6.976;2022-10-26T15:08:46;7.90;;;3.65;;
22894;SDS011;11614;52.494;6.976;2022-10-26T15:11:13;7.07;;;3.85;;
22894;SDS011;11614;52.494;6.976;2022-10-26T15:13:40;5.65;;;3.25;;
22894;SDS011;11614;52.494;6.976;2022-10-26T15:18:34;9.05;;;4.40;;
22894;SDS011;11614;52.494;6.976;2022-10-26T15:21:00;5.78;;;4.10;;
22894;SDS011;11614;52.494;6.976;2022-10-26T15:23:27;5.53;;;3.97;;
22894;SDS011;11614;52.494;6.976;2022-10-26T15:25:54;6.03;;;4.63;;
22894;SDS011;11614;52.494;6.976;2022-10-26T15:28:22;7.13;;;4.00;;
22894;SDS011;11614;52.494;6.976;2022-10-26T15:30:59;7.15;;;4.40;;
22894;SDS011;11614;52.494;6.976;2022-10-26T15:33:25;8.23;;;4.28;;
22894;SDS011;11614;52.494;6.976;2022-10-26T15:36:06;7.85;;;4.32;;
22894;SDS011;11614;52.494;6.976;2022-10-26T15:38:35;6.50;;;4.05;;
22894;SDS011;11614;52.494;6.976;2022-10-26T15:41:04;7.07;;;4.18;;
22894;SDS011;11614;52.494;6.976;2022-10-26T15:43:31;5.70;;;4.15;;
22894;SDS011;11614;52.494;6.976;2022-10-26T15:45:57;5.73;;;4.03;;
22894;SDS011;11614;52.494;6.976;2022-10-26T15:48:23;7.57;;;4.27;;
22894;SDS011;11614;52.494;6.976;2022-10-26T15:50:51;5.10;;;3.87;;
22894;SDS011;11614;52.494;6.976;2022-10-26T15:53:24;8.17;;;4.70;;
22894;SDS011;11614;52.494;6.976;2022-10-26T15:55:53;7.53;;;4.50;;
22894;SDS011;11614;52.494;6.976;2022-10-26T15:58:20;7.07;;;4.27;;
22894;SDS011;11614;52.494;6.976;2022-10-26T16:00:46;6.50;;;3.90;;
22894;SDS011;11614;52.494;6.976;2022-10-26T16:03:12;6.40;;;4.20;;
22894;SDS011;11614;52.494;6.976;2022-10-26T16:05:39;9.30;;;4.33;;
22894;SDS011;11614;52.494;6.976;2022-10-26T16:08:07;6.37;;;4.13;;
22894;SDS011;11614;52.494;6.976;2022-10-26T16:10:33;6.70;;;3.93;;
22894;SDS011;11614;52.494;6.976;2022-10-26T16:12:59;10.00;;;4.20;;
22894;SDS011;11614;52.494;6.976;2022-10-26T16:15:25;8.50;;;4.60;;
22894;SDS011;11614;52.494;6.976;2022-10-26T16:17:51;6.57;;;4.37;;
22894;SDS011;11614;52.494;6.976;2022-10-26T16:20:19;7.83;;;4.50;;
22894;SDS011;11614;52.494;6.976;2022-10-26T16:22:46;10.40;;;4.90;;
22894;SDS011;11614;52.494;6.976;2022-10-26T16:25:16;7.37;;;5.07;;
22894;SDS011;11614;52.494;6.976;2022-10-26T16:27:43;9.00;;;4.63;;
22894;SDS011;11614;52.494;6.976;2022-10-26T16:30:09;7.97;;;4.93;;
22894;SDS011;11614;52.494;6.976;2022-10-26T16:32:36;8.17;;;4.70;;
22894;SDS011;11614;52.494;6.976;2022-10-26T16:35:03;6.20;;;4.87;;
22894;SDS011;11614;52.494;6.976;2022-10-26T16:37:29;11.73;;;5.60;;
22894;SDS011;11614;52.494;6.976;2022-10-26T16:39:55;9.90;;;5.40;;
22894;SDS011;11614;52.494;6.976;2022-10-26T16:42:22;7.93;;;5.17;;
22894;SDS011;11614;52.494;6.976;2022-10-26T16:44:48;11.30;;;5.90;;
22894;SDS011;11614;52.494;6.976;2022-10-26T16:47:14;9.90;;;6.03;;
22894;SDS011;11614;52.494;6.976;2022-10-26T16:49:40;7.63;;;5.13;;
22894;SDS011;11614;52.494;6.976;2022-10-26T16:52:10;8.73;;;5.80;;
22894;SDS011;11614;52.494;6.976;2022-10-26T16:54:36;7.13;;;5.53;;
22894;SDS011;11614;52.494;6.976;2022-10-26T16:57:02;9.40;;;6.63;;
22894;SDS011;11614;52.494;6.976;2022-10-26T16:59:28;9.23;;;6.03;;
22894;SDS011;11614;52.494;6.976;2022-10-26T17:01:54;8.00;;;5.80;;
22894;SDS011;11614;52.494;6.976;2022-10-26T17:04:20;10.73;;;6.43;;
22894;SDS011;11614;52.494;6.976;2022-10-26T17:06:47;9.80;;;5.77;;
22894;SDS011;11614;52.494;6.976;2022-10-26T17:09:12;10.37;;;6.00;;
22894;SDS011;11614;52.494;6.976;2022-10-26T17:11:39;10.13;;;5.67;;
22894;SDS011;11614;52.494;6.976;2022-10-26T17:14:05;10.77;;;5.90;;
22894;SDS011;11614;52.494;6.976;2022-10-26T17:16:31;10.10;;;5.50;;
22894;SDS011;11614;52.494;6.976;2022-10-26T17:18:58;9.17;;;5.97;;
22894;SDS011;11614;52.494;6.976;2022-10-26T17:21:32;7.60;;;5.70;;
22894;SDS011;11614;52.494;6.976;2022-10-26T17:23:58;8.70;;;5.70;;
22894;SDS011;11614;52.494;6.976;2022-10-26T17:26:25;12.47;;;7.40;;
22894;SDS011;11614;52.494;6.976;2022-10-26T17:28:51;19.73;;;11.97;;
22894;SDS011;11614;52.494;6.976;2022-10-26T17:31:17;21.20;;;13.83;;
22894;SDS011;11614;52.494;6.976;2022-10-26T17:33:44;18.67;;;13.27;;
22894;SDS011;11614;52.494;6.976;2022-10-26T17:36:14;14.93;;;10.83;;
22894;SDS011;11614;52.494;6.976;2022-10-26T17:38:41;22.87;;;15.50;;
22894;SDS011;11614;52.494;6.976;2022-10-26T17:41:11;19.83;;;12.83;;
22894;SDS011;11614;52.494;6.976;2022-10-26T17:43:38;18.10;;;11.77;;
22894;SDS011;11614;52.494;6.976;2022-10-26T17:46:05;20.13;;;12.50;;
22894;SDS011;11614;52.494;6.976;2022-10-26T17:48:31;15.83;;;12.00;;
22894;SDS011;11614;52.494;6.976;2022-10-26T17:50:58;15.30;;;10.20;;
22894;SDS011;11614;52.494;6.976;2022-10-26T17:53:24;16.40;;;9.70;;
22894;SDS011;11614;52.494;6.976;2022-10-26T17:55:58;16.57;;;8.93;;
22894;SDS011;11614;52.494;6.976;2022-10-26T17:58:24;13.53;;;8.17;;